sensor_id;sensor_type;location;lat;lon;timestamp;pressure;altitude;pressure_sealevel;temperature;humidity
66273;BME280;58450;52.150;4.466;2023-02-20T00:00:29;102448.41;;;7.95;100.00
66273;BME280;58450;52.150;4.466;2023-02-20T00:03:02;102451.47;;;7.90;100.00
66273;BME280;58450;52.150;4.466;2023-02-20T00:05:30;102434.59;;;7.78;100.00
66273;BME280;58450;52.150;4.466;2023-02-20T00:07:59;102451.53;;;7.79;100.00
66273;BME280;58450;52.150;4.466;2023-02-20T00:10:26;102448.31;;;7.64;100.00
66273;BME280;58450;52.150;4.466;2023-02-20T00:12:54;102435.19;;;8.24;100.00
66273;BME280;58450;52.150;4.466;2023-02-20T00:15:22;102433.94;;;8.07;100.00
66273;BME280;58450;52.150;4.466;2023-02-20T00:17:49;102432.19;;;8.18;100.00
66273;BME280;58450;52.150;4.466;2023-02-20T00:20:20;102423.47;;;8.25;100.00
66273;BME280;58450;52.150;4.466;2023-02-20T00:22:50;102422.63;;;8.25;100.00
66273;BME280;58450;52.150;4.466;2023-02-20T00:25:20;102423.22;;;8.07;100.00
66273;BME280;58450;52.150;4.466;2023-02-20T00:27:48;102428.88;;;8.35;100.00
66273;BME280;58450;52.150;4.466;2023-02-20T00:30:17;102427.50;;;8.41;100.00
66273;BME280;58450;52.150;4.466;2023-02-20T00:32:47;102417.19;;;8.36;100.00
66273;BME280;58450;52.150;4.466;2023-02-20T00:35:17;102415.69;;;8.22;100.00
66273;BME280;58450;52.150;4.466;2023-02-20T00:37:45;102418.50;;;8.21;100.00
66273;BME280;58450;52.150;4.466;2023-02-20T00:40:14;102433.41;;;8.35;100.00
66273;BME280;58450;52.150;4.466;2023-02-20T00:42:44;102424.44;;;8.46;100.00
66273;BME280;58450;52.150;4.466;2023-02-20T00:45:14;102417.19;;;8.36;100.00
66273;BME280;58450;52.150;4.466;2023-02-20T00:47:44;102408.03;;;8.39;100.00
66273;BME280;58450;52.150;4.466;2023-02-20T00:50:13;102413.31;;;8.29;100.00
66273;BME280;58450;52.150;4.466;2023-02-20T00:52:42;102396.41;;;8.28;100.00
66273;BME280;58450;52.150;4.466;2023-02-20T00:55:09;102398.09;;;8.08;100.00
66273;BME280;58450;52.150;4.466;2023-02-20T00:57:37;102398.63;;;8.23;100.00
66273;BME280;58450;52.150;4.466;2023-02-20T01:00:09;102386.38;;;8.31;100.00
66273;BME280;58450;52.150;4.466;2023-02-20T01:02:43;102392.91;;;8.38;100.00
66273;BME280;58450;52.150;4.466;2023-02-20T01:05:11;102394.25;;;8.22;100.00
66273;BME280;58450;52.150;4.466;2023-02-20T01:07:38;102378.31;;;8.52;100.00
66273;BME280;58450;52.150;4.466;2023-02-20T01:10:07;102363.56;;;8.46;100.00
66273;BME280;58450;52.150;4.466;2023-02-20T01:12:35;102355.78;;;8.43;100.00
66273;BME280;58450;52.150;4.466;2023-02-20T01:15:03;102354.94;;;8.42;100.00
66273;BME280;58450;52.150;4.466;2023-02-20T01:17:33;102346.88;;;8.42;100.00
66273;BME280;58450;52.150;4.466;2023-02-20T01:20:01;102347.06;;;8.20;100.00
66273;BME280;58450;52.150;4.466;2023-02-20T01:22:29;102349.50;;;8.54;100.00
66273;BME280;58450;52.150;4.466;2023-02-20T01:24:56;102345.97;;;8.53;100.00
66273;BME280;58450;52.150;4.466;2023-02-20T01:27:24;102351.78;;;8.58;100.00
66273;BME280;58450;52.150;4.466;2023-02-20T01:29:51;102340.91;;;8.60;100.00
66273;BME280;58450;52.150;4.466;2023-02-20T01:32:18;102328.38;;;8.39;100.00
66273;BME280;58450;52.150;4.466;2023-02-20T01:34:47;102332.81;;;8.50;100.00
66273;BME280;58450;52.150;4.466;2023-02-20T01:37:15;102335.50;;;8.50;100.00
66273;BME280;58450;52.150;4.466;2023-02-20T01:39:45;102319.81;;;8.14;100.00
66273;BME280;58450;52.150;4.466;2023-02-20T01:42:17;102323.97;;;8.28;100.00
66273;BME280;58450;52.150;4.466;2023-02-20T01:44:47;102327.09;;;8.34;100.00
66273;BME280;58450;52.150;4.466;2023-02-20T01:47:16;102322.84;;;8.31;100.00
66273;BME280;58450;52.150;4.466;2023-02-20T01:49:48;102317.63;;;8.30;100.00
66273;BME280;58450;52.150;4.466;2023-02-20T01:52:23;102315.34;;;8.25;100.00
66273;BME280;58450;52.150;4.466;2023-02-20T01:54:55;102334.53;;;8.20;100.00
66273;BME280;58450;52.150;4.466;2023-02-20T01:57:29;102310.50;;;8.19;100.00
66273;BME280;58450;52.150;4.466;2023-02-20T02:00:02;102309.16;;;8.24;100.00
66273;BME280;58450;52.150;4.466;2023-02-20T02:02:37;102287.72;;;8.03;100.00
66273;BME280;58450;52.150;4.466;2023-02-20T02:05:12;102297.44;;;8.25;100.00
66273;BME280;58450;52.150;4.466;2023-02-20T02:07:40;102300.59;;;8.09;100.00
66273;BME280;58450;52.150;4.466;2023-02-20T02:10:10;102288.00;;;8.41;100.00
66273;BME280;58450;52.150;4.466;2023-02-20T02:12:41;102293.06;;;8.34;100.00
66273;BME280;58450;52.150;4.466;2023-02-20T02:15:13;102293.50;;;8.30;100.00
66273;BME280;58450;52.150;4.466;2023-02-20T02:18:06;102290.69;;;8.41;100.00
66273;BME280;58450;52.150;4.466;2023-02-20T02:21:21;102293.06;;;8.34;100.00
66273;BME280;58450;52.150;4.466;2023-02-20T02:24:34;102292.22;;;8.34;100.00
66273;BME280;58450;52.150;4.466;2023-02-20T02:27:34;102287.41;;;8.27;100.00
66273;BME280;58450;52.150;4.466;2023-02-20T02:34:15;102293.34;;;8.41;100.00
66273;BME280;58450;52.150;4.466;2023-02-20T02:37:09;102272.59;;;8.43;100.00
66273;BME280;58450;52.150;4.466;2023-02-20T02:39:48;102267.25;;;8.43;100.00
66273;BME280;58450;52.150;4.466;2023-02-20T02:42:26;102276.69;;;8.37;100.00
66273;BME280;58450;52.150;4.466;2023-02-20T02:45:09;102273.69;;;8.21;100.00
66273;BME280;58450;52.150;4.466;2023-02-20T02:47:48;102272.31;;;8.36;100.00
66273;BME280;58450;52.150;4.466;2023-02-20T02:50:24;102281.00;;;8.60;100.00
66273;BME280;58450;52.150;4.466;2023-02-20T02:52:59;102284.25;;;8.53;100.00
66273;BME280;58450;52.150;4.466;2023-02-20T02:55:29;102287.19;;;8.50;100.00
66273;BME280;58450;52.150;4.466;2023-02-20T02:57:59;102274.50;;;8.52;100.00
66273;BME280;58450;52.150;4.466;2023-02-20T03:00:30;102258.84;;;8.57;100.00
66273;BME280;58450;52.150;4.466;2023-02-20T03:03:04;102259.41;;;8.71;100.00
66273;BME280;58450;52.150;4.466;2023-02-20T03:05:40;102266.91;;;8.67;100.00
66273;BME280;58450;52.150;4.466;2023-02-20T03:08:22;102272.56;;;8.74;100.00
66273;BME280;58450;52.150;4.466;2023-02-20T03:11:00;102265.34;;;8.65;100.00
66273;BME280;58450;52.150;4.466;2023-02-20T03:13:33;102275.69;;;8.79;100.00
66273;BME280;58450;52.150;4.466;2023-02-20T03:16:27;102258.00;;;8.67;100.00
66273;BME280;58450;52.150;4.466;2023-02-20T03:19:05;102290.25;;;8.77;100.00
66273;BME280;58450;52.150;4.466;2023-02-20T03:21:43;102281.63;;;8.83;100.00
66273;BME280;58450;52.150;4.466;2023-02-20T03:24:16;102256.03;;;8.89;100.00
66273;BME280;58450;52.150;4.466;2023-02-20T03:26:49;102276.94;;;8.85;100.00
66273;BME280;58450;52.150;4.466;2023-02-20T03:29:26;102272.72;;;8.72;100.00
66273;BME280;58450;52.150;4.466;2023-02-20T03:32:03;102271.84;;;8.62;100.00
66273;BME280;58450;52.150;4.466;2023-02-20T03:34:54;102267.91;;;8.76;100.00
66273;BME280;58450;52.150;4.466;2023-02-20T03:37:42;102250.38;;;8.72;100.00
66273;BME280;58450;52.150;4.466;2023-02-20T03:40:31;102247.00;;;8.90;100.00
66273;BME280;58450;52.150;4.466;2023-02-20T03:43:19;102242.88;;;8.66;100.00
66273;BME280;58450;52.150;4.466;2023-02-20T03:45:48;102253.81;;;8.33;100.00
66273;BME280;58450;52.150;4.466;2023-02-20T03:48:20;102271.44;;;8.96;100.00
66273;BME280;58450;52.150;4.466;2023-02-20T03:50:54;102235.97;;;8.63;100.00
66273;BME280;58450;52.150;4.466;2023-02-20T03:53:38;102235.41;;;8.89;100.00
66273;BME280;58450;52.150;4.466;2023-02-20T03:56:10;102255.34;;;8.86;100.00
66273;BME280;58450;52.150;4.466;2023-02-20T03:58:45;102247.56;;;9.03;100.00
66273;BME280;58450;52.150;4.466;2023-02-20T04:01:19;102262.69;;;8.84;100.00
66273;BME280;58450;52.150;4.466;2023-02-20T04:03:53;102256.75;;;8.71;100.00
66273;BME280;58450;52.150;4.466;2023-02-20T04:06:27;102237.91;;;8.51;100.00
66273;BME280;58450;52.150;4.466;2023-02-20T04:08:58;102257.31;;;9.04;100.00
66273;BME280;58450;52.150;4.466;2023-02-20T04:11:35;102247.00;;;8.80;100.00
66273;BME280;58450;52.150;4.466;2023-02-20T04:14:05;102227.34;;;8.79;100.00
66273;BME280;58450;52.150;4.466;2023-02-20T04:16:39;102235.25;;;9.00;100.00
66273;BME280;58450;52.150;4.466;2023-02-20T04:19:11;102235.13;;;8.82;100.00
66273;BME280;58450;52.150;4.466;2023-02-20T04:21:42;102260.78;;;8.46;100.00
66273;BME280;58450;52.150;4.466;2023-02-20T04:24:17;102243.00;;;8.54;100.00
66273;BME280;58450;52.150;4.466;2023-02-20T04:26:50;102239.09;;;8.98;100.00
66273;BME280;58450;52.150;4.466;2023-02-20T04:29:19;102247.69;;;8.72;100.00
66273;BME280;58450;52.150;4.466;2023-02-20T04:31:46;102238.66;;;8.93;100.00
66273;BME280;58450;52.150;4.466;2023-02-20T04:34:14;102250.44;;;8.41;100.00
66273;BME280;58450;52.150;4.466;2023-02-20T04:36:41;102244.31;;;8.99;100.00
66273;BME280;58450;52.150;4.466;2023-02-20T04:39:09;102255.78;;;8.82;100.00
66273;BME280;58450;52.150;4.466;2023-02-20T04:41:36;102241.00;;;8.47;100.00
66273;BME280;58450;52.150;4.466;2023-02-20T04:44:05;102247.47;;;8.44;100.00
66273;BME280;58450;52.150;4.466;2023-02-20T04:46:50;102251.16;;;8.43;100.00
66273;BME280;58450;52.150;4.466;2023-02-20T04:49:18;102252.91;;;8.64;100.00
66273;BME280;58450;52.150;4.466;2023-02-20T04:51:45;102241.03;;;8.56;100.00
66273;BME280;58450;52.150;4.466;2023-02-20T04:54:13;102282.47;;;8.83;100.00
66273;BME280;58450;52.150;4.466;2023-02-20T04:56:40;102255.31;;;8.67;100.00
66273;BME280;58450;52.150;4.466;2023-02-20T04:59:09;102278.66;;;8.35;100.00
66273;BME280;58450;52.150;4.466;2023-02-20T05:01:37;102273.00;;;8.79;100.00
66273;BME280;58450;52.150;4.466;2023-02-20T05:04:05;102258.00;;;8.57;100.00
66273;BME280;58450;52.150;4.466;2023-02-20T05:06:32;102271.56;;;8.85;100.00
66273;BME280;58450;52.150;4.466;2023-02-20T05:09:00;102277.13;;;8.33;100.00
66273;BME280;58450;52.150;4.466;2023-02-20T05:11:27;102255.63;;;8.83;100.00
66273;BME280;58450;52.150;4.466;2023-02-20T05:13:55;102265.06;;;8.58;100.00
66273;BME280;58450;52.150;4.466;2023-02-20T05:16:23;102254.63;;;8.94;100.00
66273;BME280;58450;52.150;4.466;2023-02-20T05:18:51;102278.78;;;8.75;100.00
66273;BME280;58450;52.150;4.466;2023-02-20T05:21:18;102272.56;;;8.74;100.00
66273;BME280;58450;52.150;4.466;2023-02-20T05:24:04;102272.00;;;8.90;100.00
66273;BME280;58450;52.150;4.466;2023-02-20T05:26:32;102259.72;;;8.87;100.00
66273;BME280;58450;52.150;4.466;2023-02-20T05:29:00;102265.38;;;8.84;100.00
66273;BME280;58450;52.150;4.466;2023-02-20T05:31:28;102253.34;;;8.89;100.00
66273;BME280;58450;52.150;4.466;2023-02-20T05:33:56;102247.41;;;8.65;100.00
66273;BME280;58450;52.150;4.466;2023-02-20T05:36:23;102266.78;;;8.89;100.00
66273;BME280;58450;52.150;4.466;2023-02-20T05:38:51;102256.88;;;8.89;100.00
66273;BME280;58450;52.150;4.466;2023-02-20T05:41:18;102272.09;;;8.49;100.00
66273;BME280;58450;52.150;4.466;2023-02-20T05:43:46;102278.38;;;8.28;100.00
66273;BME280;58450;52.150;4.466;2023-02-20T05:46:14;102250.63;;;8.49;100.00
66273;BME280;58450;52.150;4.466;2023-02-20T05:48:47;102256.44;;;8.54;100.00
66273;BME280;58450;52.150;4.466;2023-02-20T05:51:19;102248.13;;;8.77;100.00
66273;BME280;58450;52.150;4.466;2023-02-20T05:53:47;102252.34;;;8.60;100.00
66273;BME280;58450;52.150;4.466;2023-02-20T05:56:15;102255.44;;;8.55;100.00
66273;BME280;58450;52.150;4.466;2023-02-20T05:58:43;102257.66;;;8.40;100.00
66273;BME280;58450;52.150;4.466;2023-02-20T06:01:16;102247.28;;;8.57;100.00
66273;BME280;58450;52.150;4.466;2023-02-20T06:03:47;102243.09;;;8.43;100.00
66273;BME280;58450;52.150;4.466;2023-02-20T06:06:15;102240.47;;;8.53;100.00
66273;BME280;58450;52.150;4.466;2023-02-20T06:08:44;102266.97;;;8.36;100.00
66273;BME280;58450;52.150;4.466;2023-02-20T06:11:14;102255.78;;;8.41;100.00
66273;BME280;58450;52.150;4.466;2023-02-20T06:13:43;102236.22;;;8.50;100.00
66273;BME280;58450;52.150;4.466;2023-02-20T06:16:11;102232.25;;;8.45;100.00
66273;BME280;58450;52.150;4.466;2023-02-20T06:18:40;102239.63;;;8.52;100.00
66273;BME280;58450;52.150;4.466;2023-02-20T06:21:10;102226.88;;;8.45;100.00
66273;BME280;58450;52.150;4.466;2023-02-20T06:23:38;102241.00;;;8.37;100.00
66273;BME280;58450;52.150;4.466;2023-02-20T06:26:06;102259.13;;;8.13;100.00
66273;BME280;58450;52.150;4.466;2023-02-20T06:28:33;102242.69;;;8.48;100.00
66273;BME280;58450;52.150;4.466;2023-02-20T06:31:01;102252.13;;;8.42;100.00
66273;BME280;58450;52.150;4.466;2023-02-20T06:33:29;102238.59;;;8.43;100.00
66273;BME280;58450;52.150;4.466;2023-02-20T06:35:56;102245.06;;;8.31;100.00
66273;BME280;58450;52.150;4.466;2023-02-20T06:38:25;102252.47;;;8.08;100.00
66273;BME280;58450;52.150;4.466;2023-02-20T06:40:54;102249.38;;;8.12;100.00
66273;BME280;58450;52.150;4.466;2023-02-20T06:43:21;102250.53;;;8.20;100.00
66273;BME280;58450;52.150;4.466;2023-02-20T06:45:49;102249.16;;;8.25;100.00
66273;BME280;58450;52.150;4.466;2023-02-20T06:48:16;102239.25;;;8.26;100.00
66273;BME280;58450;52.150;4.466;2023-02-20T06:50:44;102241.94;;;8.26;100.00
66273;BME280;58450;52.150;4.466;2023-02-20T06:53:11;102250.53;;;8.20;100.00
66273;BME280;58450;52.150;4.466;2023-02-20T06:55:40;102245.03;;;8.21;100.00
66273;BME280;58450;52.150;4.466;2023-02-20T06:58:08;102246.19;;;8.28;100.00
66273;BME280;58450;52.150;4.466;2023-02-20T07:00:35;102245.34;;;8.28;100.00
66273;BME280;58450;52.150;4.466;2023-02-20T07:03:02;102245.59;;;8.25;100.00
66273;BME280;58450;52.150;4.466;2023-02-20T07:05:30;102253.38;;;8.18;100.00
66273;BME280;58450;52.150;4.466;2023-02-20T07:07:57;102271.50;;;8.05;100.00
66273;BME280;58450;52.150;4.466;2023-02-20T07:10:25;102264.66;;;8.22;100.00
66273;BME280;58450;52.150;4.466;2023-02-20T07:12:54;102259.47;;;8.30;100.00
66273;BME280;58450;52.150;4.466;2023-02-20T07:15:22;102261.69;;;8.25;100.00
66273;BME280;58450;52.150;4.466;2023-02-20T07:17:49;102272.19;;;8.38;100.00
66273;BME280;58450;52.150;4.466;2023-02-20T07:20:17;102267.94;;;8.35;100.00
66273;BME280;58450;52.150;4.466;2023-02-20T07:22:53;102289.84;;;8.40;100.00
66273;BME280;58450;52.150;4.466;2023-02-20T07:25:21;102284.19;;;8.43;100.00
66273;BME280;58450;52.150;4.466;2023-02-20T07:27:49;102280.56;;;8.54;100.00
66273;BME280;58450;52.150;4.466;2023-02-20T07:30:18;102263.84;;;8.31;100.00
66273;BME280;58450;52.150;4.466;2023-02-20T07:32:46;102281.84;;;8.50;100.00
66273;BME280;58450;52.150;4.466;2023-02-20T07:35:13;102266.78;;;8.28;100.00
66273;BME280;58450;52.150;4.466;2023-02-20T07:37:41;102275.44;;;8.32;100.00
66273;BME280;58450;52.150;4.466;2023-02-20T07:40:10;102301.38;;;8.21;100.00
66273;BME280;58450;52.150;4.466;2023-02-20T07:42:38;102263.84;;;8.31;100.00
66273;BME280;58450;52.150;4.466;2023-02-20T07:45:06;102287.69;;;8.34;100.00
66273;BME280;58450;52.150;4.466;2023-02-20T07:47:35;102266.34;;;8.23;100.00
66273;BME280;58450;52.150;4.466;2023-02-20T07:50:03;102285.50;;;8.08;100.00
66273;BME280;58450;52.150;4.466;2023-02-20T07:52:31;102264.69;;;8.32;100.00
66273;BME280;58450;52.150;4.466;2023-02-20T07:54:59;102275.97;;;8.25;100.00
66273;BME280;58450;52.150;4.466;2023-02-20T07:57:34;102282.16;;;8.26;100.00
66273;BME280;58450;52.150;4.466;2023-02-20T08:00:05;102266.06;;;8.16;100.00
66273;BME280;58450;52.150;4.466;2023-02-20T08:02:33;102272.31;;;8.26;100.00
66273;BME280;58450;52.150;4.466;2023-02-20T08:05:02;102256.66;;;8.32;100.00
66273;BME280;58450;52.150;4.466;2023-02-20T08:07:29;102275.28;;;8.43;100.00
66273;BME280;58450;52.150;4.466;2023-02-20T08:09:57;102268.41;;;8.50;100.00
66273;BME280;58450;52.150;4.466;2023-02-20T08:12:25;102271.81;;;8.52;100.00
66273;BME280;58450;52.150;4.466;2023-02-20T08:14:52;102286.22;;;8.51;100.00
66273;BME280;58450;52.150;4.466;2023-02-20T08:17:20;102256.00;;;8.49;100.00
66273;BME280;58450;52.150;4.466;2023-02-20T08:19:47;102274.09;;;8.57;100.00
66273;BME280;58450;52.150;4.466;2023-02-20T08:22:16;102278.59;;;8.56;100.00
66273;BME280;58450;52.150;4.466;2023-02-20T08:24:43;102266.47;;;8.62;100.00
66273;BME280;58450;52.150;4.466;2023-02-20T08:27:11;102272.41;;;8.66;100.00
66273;BME280;58450;52.150;4.466;2023-02-20T08:29:38;102262.94;;;8.62;100.00
66273;BME280;58450;52.150;4.466;2023-02-20T08:32:06;102254.88;;;8.52;100.00
66273;BME280;58450;52.150;4.466;2023-02-20T08:34:33;102254.91;;;8.71;100.00
66273;BME280;58450;52.150;4.466;2023-02-20T08:37:01;102267.91;;;8.76;100.00
66273;BME280;58450;52.150;4.466;2023-02-20T08:39:29;102241.47;;;8.62;100.00
66273;BME280;58450;52.150;4.466;2023-02-20T08:41:57;102269.16;;;8.72;100.00
66273;BME280;58450;52.150;4.466;2023-02-20T08:44:24;102265.50;;;8.73;100.00
66273;BME280;58450;52.150;4.466;2023-02-20T08:46:52;102234.84;;;8.56;100.00
66273;BME280;58450;52.150;4.466;2023-02-20T08:49:20;102269.72;;;8.66;100.00
66273;BME280;58450;52.150;4.466;2023-02-20T08:51:51;102252.94;;;8.74;100.00
66273;BME280;58450;52.150;4.466;2023-02-20T08:54:20;102253.34;;;8.69;100.00
66273;BME280;58450;52.150;4.466;2023-02-20T08:56:49;102240.06;;;8.77;100.00
66273;BME280;58450;52.150;4.466;2023-02-20T08:59:16;102247.72;;;8.92;100.00
66273;BME280;58450;52.150;4.466;2023-02-20T09:01:44;102243.91;;;8.84;100.00
66273;BME280;58450;52.150;4.466;2023-02-20T09:04:11;102241.91;;;8.86;100.00
66273;BME280;58450;52.150;4.466;2023-02-20T09:06:40;102232.03;;;8.77;100.00
66273;BME280;58450;52.150;4.466;2023-02-20T09:09:08;102259.56;;;8.79;100.00
66273;BME280;58450;52.150;4.466;2023-02-20T09:11:35;102259.13;;;8.84;100.00
66273;BME280;58450;52.150;4.466;2023-02-20T09:14:04;102255.19;;;8.68;100.00
66273;BME280;58450;52.150;4.466;2023-02-20T09:16:31;102254.63;;;8.75;100.00
66273;BME280;58450;52.150;4.466;2023-02-20T09:18:59;102272.13;;;8.69;100.00
66273;BME280;58450;52.150;4.466;2023-02-20T09:21:26;102287.13;;;8.81;100.00
66273;BME280;58450;52.150;4.466;2023-02-20T09:23:54;102267.50;;;8.91;100.00
66273;BME280;58450;52.150;4.466;2023-02-20T09:26:21;102261.69;;;8.85;100.00
66273;BME280;58450;52.150;4.466;2023-02-20T09:28:49;102261.41;;;8.79;100.00
66273;BME280;58450;52.150;4.466;2023-02-20T09:31:17;102268.91;;;8.95;100.00
66273;BME280;58450;52.150;4.466;2023-02-20T09:33:46;102264.81;;;8.81;100.00
66273;BME280;58450;52.150;4.466;2023-02-20T09:36:13;102257.03;;;8.97;100.00
66273;BME280;58450;52.150;4.466;2023-02-20T09:38:41;102250.97;;;8.85;100.00
66273;BME280;58450;52.150;4.466;2023-02-20T09:41:14;102266.50;;;8.92;100.00
66273;BME280;58450;52.150;4.466;2023-02-20T09:43:59;102259.16;;;8.94;100.00
66273;BME280;58450;52.150;4.466;2023-02-20T09:46:42;102271.56;;;8.75;100.00
66273;BME280;58450;52.150;4.466;2023-02-20T09:49:13;102260.56;;;8.78;100.00
66273;BME280;58450;52.150;4.466;2023-02-20T09:51:49;102256.88;;;8.69;100.00
66273;BME280;58450;52.150;4.466;2023-02-20T09:54:23;102254.34;;;8.68;100.00
66273;BME280;58450;52.150;4.466;2023-02-20T09:56:58;102248.00;;;8.79;100.00
66273;BME280;58450;52.150;4.466;2023-02-20T09:59:32;102267.91;;;8.86;100.00
66273;BME280;58450;52.150;4.466;2023-02-20T10:02:13;102257.88;;;8.78;100.00
66273;BME280;58450;52.150;4.466;2023-02-20T10:04:46;102279.47;;;8.67;100.00
66273;BME280;58450;52.150;4.466;2023-02-20T10:07:20;102262.81;;;8.73;100.00
66273;BME280;58450;52.150;4.466;2023-02-20T10:09:51;102252.34;;;8.60;100.00
66273;BME280;58450;52.150;4.466;2023-02-20T10:12:24;102255.34;;;8.86;100.00
66273;BME280;58450;52.150;4.466;2023-02-20T10:15:16;102249.25;;;8.84;100.00
66273;BME280;58450;52.150;4.466;2023-02-20T10:17:55;102257.47;;;8.93;100.00
66273;BME280;58450;52.150;4.466;2023-02-20T10:20:34;102241.38;;;8.83;100.00
66273;BME280;58450;52.150;4.466;2023-02-20T10:23:26;102266.50;;;8.82;100.00
66273;BME280;58450;52.150;4.466;2023-02-20T10:26:06;102257.59;;;8.81;100.00
66273;BME280;58450;52.150;4.466;2023-02-20T10:28:38;102284.88;;;8.77;100.00
66273;BME280;58450;52.150;4.466;2023-02-20T10:31:12;102274.25;;;8.75;100.00
66273;BME280;58450;52.150;4.466;2023-02-20T10:33:55;102280.06;;;8.70;100.00
66273;BME280;58450;52.150;4.466;2023-02-20T10:36:29;102209.28;;;8.71;100.00
66273;BME280;58450;52.150;4.466;2023-02-20T10:39:06;102236.53;;;8.86;100.00
66273;BME280;58450;52.150;4.466;2023-02-20T10:41:40;102240.38;;;8.94;100.00
66273;BME280;58450;52.150;4.466;2023-02-20T10:44:19;102246.16;;;8.99;100.00
66273;BME280;58450;52.150;4.466;2023-02-20T10:46:58;102267.91;;;8.96;100.00
66273;BME280;58450;52.150;4.466;2023-02-20T10:49:37;102266.63;;;9.10;100.00
66273;BME280;58450;52.150;4.466;2023-02-20T10:52:12;102246.84;;;9.21;100.00
66273;BME280;58450;52.150;4.466;2023-02-20T10:54:45;102273.56;;;8.83;100.00
66273;BME280;58450;52.150;4.466;2023-02-20T10:57:19;102284.16;;;8.75;100.00
66273;BME280;58450;52.150;4.466;2023-02-20T10:59:55;102268.34;;;8.81;100.00
66273;BME280;58450;52.150;4.466;2023-02-20T11:02:35;102264.22;;;8.77;100.00
66273;BME280;58450;52.150;4.466;2023-02-20T11:05:11;102257.31;;;8.75;100.00
66273;BME280;58450;52.150;4.466;2023-02-20T11:07:42;102281.63;;;8.93;100.00
66273;BME280;58450;52.150;4.466;2023-02-20T11:10:10;102232.56;;;9.00;100.00
66273;BME280;58450;52.150;4.466;2023-02-20T11:12:42;102245.00;;;9.01;100.00
66273;BME280;58450;52.150;4.466;2023-02-20T11:15:16;102232.72;;;8.99;100.00
66273;BME280;58450;52.150;4.466;2023-02-20T11:17:49;102266.22;;;9.05;100.00
66273;BME280;58450;52.150;4.466;2023-02-20T11:20:42;102222.38;;;9.24;100.00
66273;BME280;58450;52.150;4.466;2023-02-20T11:23:33;102244.44;;;9.27;100.00
66273;BME280;58450;52.150;4.466;2023-02-20T11:26:26;102244.03;;;9.12;100.00
66273;BME280;58450;52.150;4.466;2023-02-20T11:29:01;102226.41;;;9.48;100.00
66273;BME280;58450;52.150;4.466;2023-02-20T11:31:33;102238.22;;;9.27;100.00
66273;BME280;58450;52.150;4.466;2023-02-20T11:34:03;102207.06;;;9.34;100.00
66273;BME280;58450;52.150;4.466;2023-02-20T11:36:36;102243.94;;;9.61;100.00
66273;BME280;58450;52.150;4.466;2023-02-20T11:39:18;102229.69;;;9.51;100.00
66273;BME280;58450;52.150;4.466;2023-02-20T11:42:02;102225.38;;;9.68;100.00
66273;BME280;58450;52.150;4.466;2023-02-20T11:44:32;102226.28;;;9.49;100.00
66273;BME280;58450;52.150;4.466;2023-02-20T11:47:24;102198.41;;;9.50;100.00
66273;BME280;58450;52.150;4.466;2023-02-20T11:50:11;102197.50;;;9.69;100.00
66273;BME280;58450;52.150;4.466;2023-02-20T11:52:59;102212.97;;;9.85;100.00
66273;BME280;58450;52.150;4.466;2023-02-20T11:55:30;102218.22;;;9.87;100.00
66273;BME280;58450;52.150;4.466;2023-02-20T11:57:58;102226.69;;;9.92;100.00
66273;BME280;58450;52.150;4.466;2023-02-20T12:00:28;102202.41;;;10.12;100.00
66273;BME280;58450;52.150;4.466;2023-02-20T12:03:12;102208.97;;;9.99;100.00
66273;BME280;58450;52.150;4.466;2023-02-20T12:05:44;102247.31;;;10.01;100.00
66273;BME280;58450;52.150;4.466;2023-02-20T12:08:30;102206.44;;;10.16;100.00
66273;BME280;58450;52.150;4.466;2023-02-20T12:11:07;102183.63;;;10.20;100.00
66273;BME280;58450;52.150;4.466;2023-02-20T12:13:38;102223.78;;;9.75;100.00
66273;BME280;58450;52.150;4.466;2023-02-20T12:16:21;102218.81;;;9.81;100.00
66273;BME280;58450;52.150;4.466;2023-02-20T12:19:03;102205.47;;;9.89;100.00
66273;BME280;58450;52.150;4.466;2023-02-20T12:21:49;102237.97;;;9.96;100.00
66273;BME280;58450;52.150;4.466;2023-02-20T12:24:45;102204.31;;;9.91;100.00
66273;BME280;58450;52.150;4.466;2023-02-20T12:27:33;102228.56;;;9.82;100.00
66273;BME280;58450;52.150;4.466;2023-02-20T12:30:23;102252.16;;;9.50;100.00
66273;BME280;58450;52.150;4.466;2023-02-20T12:33:09;102217.81;;;9.44;100.00
66273;BME280;58450;52.150;4.466;2023-02-20T12:35:57;102245.34;;;9.56;100.00
66273;BME280;58450;52.150;4.466;2023-02-20T12:38:38;102203.09;;;9.48;100.00
66273;BME280;58450;52.150;4.466;2023-02-20T12:41:26;102187.69;;;9.78;100.00
66273;BME280;58450;52.150;4.466;2023-02-20T12:44:14;102199.13;;;9.52;100.00
66273;BME280;58450;52.150;4.466;2023-02-20T12:46:59;102179.47;;;9.80;100.00
66273;BME280;58450;52.150;4.466;2023-02-20T12:49:50;102183.94;;;9.61;100.00
66273;BME280;58450;52.150;4.466;2023-02-20T12:52:33;102196.53;;;9.88;100.00
66273;BME280;58450;52.150;4.466;2023-02-20T12:55:16;102207.16;;;9.90;100.00
66273;BME280;58450;52.150;4.466;2023-02-20T12:57:58;102173.75;;;9.65;100.00
66273;BME280;58450;52.150;4.466;2023-02-20T13:00:42;102217.94;;;9.80;100.00
66273;BME280;58450;52.150;4.466;2023-02-20T13:03:19;102197.03;;;9.74;100.00
66273;BME280;58450;52.150;4.466;2023-02-20T13:05:50;102184.91;;;9.98;100.00
66273;BME280;58450;52.150;4.466;2023-02-20T13:08:22;102200.59;;;9.74;100.00
66273;BME280;58450;52.150;4.466;2023-02-20T13:10:57;102186.50;;;9.90;100.00
66273;BME280;58450;52.150;4.466;2023-02-20T13:13:31;102205.56;;;9.69;100.00
66273;BME280;58450;52.150;4.466;2023-02-20T13:16:10;102179.03;;;9.84;100.00
66273;BME280;58450;52.150;4.466;2023-02-20T13:18:49;102190.97;;;9.72;100.00
66273;BME280;58450;52.150;4.466;2023-02-20T13:21:28;102175.97;;;9.31;100.00
66273;BME280;58450;52.150;4.466;2023-02-20T13:24:35;102189.19;;;9.63;100.00